Time;durP1;ratioP1;P1;durP2;ratioP2;P2;SDS_P1;SDS_P2;PMS_P1;PMS_P2;Temp;Humidity;BMP_temperature;BMP_pressure;BME280_temperature;BME280_humidity;BME280_pressure;Samples;Min_cycle;Max_cycle;Signal;HPM_P1;HPM_P2
2023/07/08 00:01:53;;;;;;;;;;;;;;;19.16;88.56;101636.97;5016116;28;19924;-71
2023/07/08 00:04:18;;;;;;;;;;;;;;;19.14;89.79;101641.72;5025839;28;19974;-71
2023/07/08 00:06:43;;;;;;;;;;;;;;;19.13;90.04;101636.41;5032739;28;19925;-71
2023/07/08 00:09:15;;;;;;;;;;;;;;;19.11;90.32;101635.69;5029947;28;19927;-71
2023/07/08 00:11:40;;;;;;;;;;;;;;;19.06;91.63;101628.03;5026793;28;20275;-71
2023/07/08 00:14:05;;;;;;;;;;;;;;;19.06;93.74;101630.75;5033636;28;20401;-71
2023/07/08 00:16:30;;;;;;;;;;;;;;;19.01;94.54;101622.19;5027531;28;19929;-71
2023/07/08 00:18:56;;;;;;;;;;;;;;;18.94;91.77;101613.75;5029927;28;19925;-71
2023/07/08 00:21:21;;;;;;;;;;;;;;;18.96;91.47;101622.66;5027050;28;20004;-71
2023/07/08 00:23:50;;;;;;;;;;;;;;;18.88;93.35;101617.97;5032295;28;20290;-71
2023/07/08 00:26:28;;;;;;;;;;;;;;;18.85;92.51;101626.44;5009255;28;19960;-71
2023/07/08 00:28:54;;;;;;;;;;;;;;;18.86;92.43;101614.56;5018989;28;20019;-71
2023/07/08 00:31:23;;;;;;;;;;;;;;;18.82;91.40;101613.16;5023977;28;19925;-71
2023/07/08 00:33:49;;;;;;;;;;;;;;;18.94;89.59;101612.91;5010907;28;20319;-71
2023/07/08 00:36:14;;;;;;;;;;;;;;;18.96;92.26;101605.47;5005578;28;20414;-71
2023/07/08 00:38:44;;;;;;;;;;;;;;;18.89;92.55;101606.06;5017940;28;20588;-71
2023/07/08 00:41:09;;;;;;;;;;;;;;;18.90;90.53;101604.19;5043826;28;19921;-71
2023/07/08 00:43:36;;;;;;;;;;;;;;;18.86;96.64;101600.94;5047864;28;19931;-71
2023/07/08 00:46:03;;;;;;;;;;;;;;;18.77;95.52;101595.59;5023321;28;19924;-71
2023/07/08 00:48:29;;;;;;;;;;;;;;;18.61;95.37;101597.13;5026216;28;20474;-72
2023/07/08 00:50:54;;;;;;;;;;;;;;;18.55;95.75;101597.72;5042859;28;19943;-71
2023/07/08 00:53:24;;;;;;;;;;;;;;;18.51;95.88;101596.34;5027768;28;20641;-71
2023/07/08 00:55:50;;;;;;;;;;;;;;;18.54;92.54;101596.88;5044384;28;19924;-71
2023/07/08 00:58:17;;;;;;;;;;;;;;;18.69;90.00;101610.81;5025063;28;20624;-72
2023/07/08 01:00:42;;;;;;;;;;;;;;;18.71;92.11;101602.47;5020925;28;19924;-71
2023/07/08 01:03:07;;;;;;;;;;;;;;;18.67;91.20;101601.94;5020863;28;19947;-69
2023/07/08 01:05:34;;;;;;;;;;;;;;;18.65;90.67;101608.56;5030683;28;19924;-71
2023/07/08 01:08:00;;;;;;;;;;;;;;;18.55;90.71;101606.75;5045683;28;19924;-71
2023/07/08 01:10:27;;;;;;;;;;;;;;;18.46;94.84;101604.09;5027251;28;19935;-71
2023/07/08 01:12:53;;;;;;;;;;;;;;;18.37;97.46;101600.44;5034593;28;19924;-71
2023/07/08 01:15:18;;;;;;;;;;;;;;;18.29;97.91;101593.03;5044954;28;20731;-70
2023/07/08 01:17:44;;;;;;;;;;;;;;;18.19;99.75;101597.69;5040801;28;20003;-71
2023/07/08 01:20:15;;;;;;;;;;;;;;;18.20;100.00;101594.78;5035932;28;19923;-71
2023/07/08 01:22:40;;;;;;;;;;;;;;;18.21;99.71;101590.22;5044269;28;20405;-71
2023/07/08 01:25:06;;;;;;;;;;;;;;;18.25;96.05;101595.19;5047483;28;19928;-71
2023/07/08 01:27:32;;;;;;;;;;;;;;;18.35;96.97;101595.13;5044979;28;19960;-71
2023/07/08 01:29:58;;;;;;;;;;;;;;;18.45;95.15;101595.06;5008149;28;19960;-71
2023/07/08 01:32:23;;;;;;;;;;;;;;;18.52;92.94;101593.47;5031291;28;20458;-71
2023/07/08 01:34:59;;;;;;;;;;;;;;;18.53;97.48;101587.00;5045828;28;19924;-71
2023/07/08 01:37:35;;;;;;;;;;;;;;;18.48;94.95;101583.91;5020904;28;19925;-71
2023/07/08 01:40:19;;;;;;;;;;;;;;;18.60;92.74;101595.41;5023954;28;19920;-71
2023/07/08 01:42:44;;;;;;;;;;;;;;;18.67;92.81;101582.91;5032257;28;19943;-71
2023/07/08 01:45:11;;;;;;;;;;;;;;;18.70;92.90;101582.59;5024953;28;19924;-71
2023/07/08 01:47:36;;;;;;;;;;;;;;;18.77;89.44;101587.44;5017679;28;19943;-71
2023/07/08 01:50:01;;;;;;;;;;;;;;;18.84;89.32;101577.59;5019983;28;19929;-71
2023/07/08 01:52:26;;;;;;;;;;;;;;;18.90;89.07;101585.16;5041551;28;19967;-71
2023/07/08 01:54:55;;;;;;;;;;;;;;;18.95;88.98;101582.84;5025472;28;19931;-71
2023/07/08 01:57:20;;;;;;;;;;;;;;;19.00;88.10;101574.22;5025032;28;19925;-71
2023/07/08 01:59:46;;;;;;;;;;;;;;;19.02;91.11;101569.47;5042392;28;20294;-71
2023/07/08 02:02:11;;;;;;;;;;;;;;;19.02;90.20;101574.91;5026661;28;20369;-71
2023/07/08 02:04:36;;;;;;;;;;;;;;;18.93;89.94;101565.78;5025731;28;20426;-71
2023/07/08 02:07:01;;;;;;;;;;;;;;;18.93;90.70;101563.06;5042473;28;20674;-71
2023/07/08 02:09:27;;;;;;;;;;;;;;;18.93;90.85;101560.34;5025289;28;19924;-71
2023/07/08 02:11:53;;;;;;;;;;;;;;;18.89;89.59;101553.50;5014909;28;19925;-71
2023/07/08 02:14:18;;;;;;;;;;;;;;;18.92;88.97;101560.53;5017321;28;19932;-71
2023/07/08 02:16:43;;;;;;;;;;;;;;;18.95;89.57;101554.75;5016459;28;19956;-71
2023/07/08 02:19:09;;;;;;;;;;;;;;;18.92;91.79;101561.38;5015783;28;20007;-71
2023/07/08 02:21:34;;;;;;;;;;;;;;;18.85;93.38;101558.44;5017496;28;19921;-71
2023/07/08 02:24:00;;;;;;;;;;;;;;;18.73;96.53;101560.53;5000231;28;20037;-71
2023/07/08 02:26:26;;;;;;;;;;;;;;;18.61;98.38;101556.31;5015536;28;19994;-71
2023/07/08 02:28:51;;;;;;;;;;;;;;;18.48;98.66;101554.00;5033588;28;19925;-71
2023/07/08 02:31:16;;;;;;;;;;;;;;;18.38;98.28;101547.78;5031583;28;19932;-71
2023/07/08 02:33:42;;;;;;;;;;;;;;;18.29;100.00;101546.81;5033120;28;19924;-71
2023/07/08 02:36:07;;;;;;;;;;;;;;;18.09;100.00;101541.50;5032487;28;19924;-71
2023/07/08 02:38:32;;;;;;;;;;;;;;;18.06;100.00;101538.25;5015940;28;19935;-71
2023/07/08 02:40:57;;;;;;;;;;;;;;;18.05;100.00;101537.38;5012598;28;20351;-71
2023/07/08 02:43:23;;;;;;;;;;;;;;;17.95;100.00;101523.81;5016633;28;19925;-71
2023/07/08 02:45:51;;;;;;;;;;;;;;;17.89;100.00;101537.16;5034267;28;19929;-71
2023/07/08 02:48:19;;;;;;;;;;;;;;;17.81;100.00;101546.91;5030877;28;19924;-71
2023/07/08 02:50:44;;;;;;;;;;;;;;;17.73;100.00;101545.97;5017435;28;20413;-71
2023/07/08 02:53:09;;;;;;;;;;;;;;;17.65;100.00;101542.13;5034958;28;19928;-71
2023/07/08 02:55:35;;;;;;;;;;;;;;;17.62;100.00;101547.84;5031019;28;19928;-71
2023/07/08 02:58:00;;;;;;;;;;;;;;;17.60;100.00;101540.88;5030152;28;19971;-71
2023/07/08 03:00:25;;;;;;;;;;;;;;;17.54;100.00;101540.44;5033376;28;20598;-71
2023/07/08 03:02:50;;;;;;;;;;;;;;;17.38;100.00;101542.94;5032162;28;20385;-71
2023/07/08 03:05:16;;;;;;;;;;;;;;;17.28;100.00;101534.84;5031119;28;20443;-71
2023/07/08 03:07:41;;;;;;;;;;;;;;;17.22;100.00;101532.69;5035367;28;19968;-71
2023/07/08 03:10:06;;;;;;;;;;;;;;;17.22;100.00;101530.81;5014344;28;20493;-71
2023/07/08 03:12:31;;;;;;;;;;;;;;;17.22;100.00;101533.53;5032374;28;20375;-71
2023/07/08 03:14:57;;;;;;;;;;;;;;;17.20;100.00;101540.13;5013678;28;20014;-71
2023/07/08 03:17:22;;;;;;;;;;;;;;;17.14;100.00;101532.56;5035105;28;19929;-71
2023/07/08 03:19:47;;;;;;;;;;;;;;;17.06;100.00;101534.16;5035169;28;19928;-71
2023/07/08 03:22:13;;;;;;;;;;;;;;;17.02;100.00;101532.75;5035732;28;19936;-70
2023/07/08 03:24:45;;;;;;;;;;;;;;;17.00;100.00;101536.59;5036423;28;20496;-70
2023/07/08 03:27:10;;;;;;;;;;;;;;;16.92;100.00;101540.88;5036896;28;20390;-70
2023/07/08 03:29:35;;;;;;;;;;;;;;;16.89;100.00;101546.56;5036875;28;20007;-70
2023/07/08 03:32:00;;;;;;;;;;;;;;;16.74;100.00;101538.00;5035060;28;19925;-70
2023/07/08 03:34:25;;;;;;;;;;;;;;;16.61;100.00;101545.56;5037744;28;19939;-70
2023/07/08 03:36:51;;;;;;;;;;;;;;;16.44;100.00;101547.09;5036824;28;19931;-71
2023/07/08 03:39:16;;;;;;;;;;;;;;;16.35;100.00;101548.81;5015941;28;19928;-70
2023/07/08 03:41:42;;;;;;;;;;;;;;;16.33;100.00;101545.38;5034935;28;20441;-71
2023/07/08 03:44:07;;;;;;;;;;;;;;;16.24;100.00;101559.78;5017499;28;19928;-70
2023/07/08 03:46:32;;;;;;;;;;;;;;;16.17;100.00;101559.47;5032565;28;19939;-71
2023/07/08 03:48:57;;;;;;;;;;;;;;;16.14;100.00;101557.06;5017674;28;20343;-70
2023/07/08 03:51:24;;;;;;;;;;;;;;;16.20;100.00;101556.50;5034918;28;19925;-71
2023/07/08 03:53:49;;;;;;;;;;;;;;;16.13;100.00;101558.06;5019196;28;19964;-70
2023/07/08 03:56:14;;;;;;;;;;;;;;;16.19;100.00;101557.47;5035253;28;20067;-70
2023/07/08 03:58:40;;;;;;;;;;;;;;;16.08;100.00;101560.31;5035371;28;20015;-70
2023/07/08 04:01:09;;;;;;;;;;;;;;;16.14;100.00;101560.63;5037342;28;20032;-70
2023/07/08 04:03:34;;;;;;;;;;;;;;;16.16;100.00;101563.16;5035890;28;20015;-70
2023/07/08 04:06:00;;;;;;;;;;;;;;;16.19;100.00;101558.34;5034511;28;19931;-70
2023/07/08 04:08:25;;;;;;;;;;;;;;;16.25;100.00;101558.81;5033467;28;19928;-71
2023/07/08 04:10:50;;;;;;;;;;;;;;;16.28;100.00;101563.94;5033935;28;19929;-70
2023/07/08 04:13:15;;;;;;;;;;;;;;;16.34;100.00;101561.53;5035224;28;19929;-70
2023/07/08 04:15:40;;;;;;;;;;;;;;;16.43;100.00;101548.97;5032515;28;19940;-71
2023/07/08 04:18:06;;;;;;;;;;;;;;;16.42;100.00;101549.97;5035657;28;19929;-71
2023/07/08 04:20:33;;;;;;;;;;;;;;;16.48;100.00;101548.53;5029354;28;19925;-70
2023/07/08 04:22:58;;;;;;;;;;;;;;;16.32;100.00;101531.00;5034277;28;19936;-71
2023/07/08 04:25:24;;;;;;;;;;;;;;;16.49;100.00;101551.13;5027984;28;19940;-71
2023/07/08 04:27:49;;;;;;;;;;;;;;;16.63;100.00;101544.44;5007358;28;20776;-70
2023/07/08 04:30:20;;;;;;;;;;;;;;;16.71;100.00;101551.84;5033865;28;20018;-70
2023/07/08 04:32:45;;;;;;;;;;;;;;;16.74;100.00;101553.41;5017825;28;19924;-70
2023/07/08 04:35:11;;;;;;;;;;;;;;;16.73;100.00;101560.69;5035399;28;19920;-70
2023/07/08 04:37:37;;;;;;;;;;;;;;;16.69;100.00;101561.97;5034551;28;19963;-71
2023/07/08 04:40:04;;;;;;;;;;;;;;;16.62;100.00;101560.81;5016926;28;20019;-70
2023/07/08 04:42:30;;;;;;;;;;;;;;;16.62;100.00;101567.13;5034643;28;19936;-70
2023/07/08 04:44:55;;;;;;;;;;;;;;;16.68;100.00;101565.69;5035009;28;20306;-70
2023/07/08 04:47:20;;;;;;;;;;;;;;;16.71;100.00;101568.13;5035704;28;20335;-71
2023/07/08 04:49:47;;;;;;;;;;;;;;;16.75;100.00;101569.56;5032771;28;19929;-70
2023/07/08 04:52:12;;;;;;;;;;;;;;;16.86;100.00;101567.69;5034514;28;20375;-70
2023/07/08 04:54:37;;;;;;;;;;;;;;;16.96;100.00;101573.13;5029082;28;19963;-70
2023/07/08 04:57:03;;;;;;;;;;;;;;;17.03;100.00;101569.72;5016791;28;20371;-70
2023/07/08 04:59:28;;;;;;;;;;;;;;;17.11;100.00;101566.28;5032035;28;19967;-70
2023/07/08 05:01:53;;;;;;;;;;;;;;;17.20;100.00;101557.28;5034066;28;19925;-70
2023/07/08 05:04:19;;;;;;;;;;;;;;;17.34;100.00;101553.25;5029383;28;20066;-71
2023/07/08 05:06:44;;;;;;;;;;;;;;;17.38;100.00;101554.63;5026486;28;19924;-70
2023/07/08 05:09:10;;;;;;;;;;;;;;;17.44;100.00;101553.22;5033917;28;19951;-70
2023/07/08 05:11:35;;;;;;;;;;;;;;;17.58;100.00;101556.44;5035616;28;19974;-70
2023/07/08 05:14:01;;;;;;;;;;;;;;;17.72;100.00;101549.69;5031764;28;19932;-70
2023/07/08 05:16:26;;;;;;;;;;;;;;;17.82;100.00;101554.06;5031311;28;19964;-70
2023/07/08 05:18:51;;;;;;;;;;;;;;;17.95;100.00;101547.44;5014826;28;19936;-70
2023/07/08 05:21:18;;;;;;;;;;;;;;;18.04;100.00;101551.97;5034149;28;19932;-70
2023/07/08 05:23:44;;;;;;;;;;;;;;;18.14;100.00;101554.66;5014295;28;19925;-70
2023/07/08 05:26:09;;;;;;;;;;;;;;;18.28;100.00;101551.41;5033194;28;19994;-70
2023/07/08 05:28:34;;;;;;;;;;;;;;;18.40;100.00;101553.94;5037624;28;19921;-70
2023/07/08 05:30:59;;;;;;;;;;;;;;;18.52;100.00;101547.25;5038053;28;19964;-70
2023/07/08 05:33:25;;;;;;;;;;;;;;;18.64;100.00;101555.19;5019114;28;19925;-70
2023/07/08 05:35:51;;;;;;;;;;;;;;;18.74;100.00;101556.81;5037152;28;19928;-70
2023/07/08 05:38:16;;;;;;;;;;;;;;;18.77;100.00;101563.78;5036817;28;20167;-70
2023/07/08 05:40:41;;;;;;;;;;;;;;;18.85;100.00;101565.72;5039287;28;20227;-70
2023/07/08 05:43:06;;;;;;;;;;;;;;;18.91;100.00;101553.38;5030372;28;19933;-70
2023/07/08 05:45:32;;;;;;;;;;;;;;;19.04;100.00;101551.13;5031509;28;20126;-70
2023/07/08 05:47:57;;;;;;;;;;;;;;;19.17;100.00;101546.13;5034715;28;20034;-70
2023/07/08 05:50:22;;;;;;;;;;;;;;;19.29;100.00;101549.44;5030181;28;19925;-71
2023/07/08 05:52:47;;;;;;;;;;;;;;;19.39;100.00;101552.06;5036616;28;20132;-70
2023/07/08 05:55:12;;;;;;;;;;;;;;;19.57;100.00;101551.13;5037965;28;20370;-70
2023/07/08 05:57:38;;;;;;;;;;;;;;;19.71;100.00;101549.66;5035757;28;19925;-70
2023/07/08 06:00:03;;;;;;;;;;;;;;;19.83;100.00;101544.78;5037440;28;20438;-70
2023/07/08 06:02:29;;;;;;;;;;;;;;;19.92;100.00;101546.56;5016378;28;20431;-70
2023/07/08 06:04:54;;;;;;;;;;;;;;;19.99;100.00;101553.06;5037151;28;20203;-70
2023/07/08 06:07:19;;;;;;;;;;;;;;;20.15;100.00;101556.88;5036816;28;19944;-70
2023/07/08 06:09:44;;;;;;;;;;;;;;;20.25;97.47;101554.00;5036632;28;19924;-70
2023/07/08 06:12:10;;;;;;;;;;;;;;;20.35;99.64;101551.97;5016199;28;19924;-70
2023/07/08 06:14:35;;;;;;;;;;;;;;;20.44;96.69;101550.13;5035575;28;19932;-70
2023/07/08 06:17:00;;;;;;;;;;;;;;;20.52;96.08;101559.16;5034122;28;19928;-70
2023/07/08 06:19:26;;;;;;;;;;;;;;;20.56;94.13;101562.41;5019300;28;19917;-70
2023/07/08 06:21:51;;;;;;;;;;;;;;;20.71;96.19;101559.88;5032520;28;19932;-70
2023/07/08 06:24:16;;;;;;;;;;;;;;;20.84;96.82;101559.38;5038789;28;19963;-70
2023/07/08 06:26:41;;;;;;;;;;;;;;;20.73;90.78;101559.72;5018123;28;19972;-71
2023/07/08 06:29:06;;;;;;;;;;;;;;;20.94;91.53;101567.41;4999874;28;19924;-70
2023/07/08 06:31:32;;;;;;;;;;;;;;;20.94;94.72;101557.34;5036192;28;20034;-70
2023/07/08 06:33:57;;;;;;;;;;;;;;;21.00;89.72;101566.72;5037170;28;20398;-70
2023/07/08 06:36:22;;;;;;;;;;;;;;;21.15;91.18;101569.63;5035251;28;19924;-70
2023/07/08 06:38:48;;;;;;;;;;;;;;;21.24;87.37;101565.00;5033912;28;19932;-70
2023/07/08 06:41:13;;;;;;;;;;;;;;;21.42;89.14;101559.34;5033945;28;19990;-70
2023/07/08 06:43:38;;;;;;;;;;;;;;;21.47;87.11;101564.28;5032532;28;19964;-70
2023/07/08 06:46:06;;;;;;;;;;;;;;;21.56;92.89;101561.38;5034214;28;19964;-70
2023/07/08 06:48:31;;;;;;;;;;;;;;;21.55;86.27;101569.72;5011251;28;19932;-70
2023/07/08 06:50:56;;;;;;;;;;;;;;;21.66;88.55;101565.81;5013904;28;19917;-70
2023/07/08 06:53:21;;;;;;;;;;;;;;;21.65;87.89;101564.97;5034671;28;19974;-70
2023/07/08 06:55:47;;;;;;;;;;;;;;;21.71;86.56;101563.41;5034154;28;20391;-70
2023/07/08 06:58:13;;;;;;;;;;;;;;;21.84;85.02;101566.44;5013398;28;20202;-70
2023/07/08 07:00:41;;;;;;;;;;;;;;;21.93;88.96;101566.38;5031068;28;19929;-70
2023/07/08 07:03:06;;;;;;;;;;;;;;;22.04;85.96;101563.28;5033014;28;19936;-70
2023/07/08 07:05:31;;;;;;;;;;;;;;;22.11;85.79;101556.06;5015894;28;19924;-70
2023/07/08 07:07:57;;;;;;;;;;;;;;;22.26;92.70;101558.03;5033821;28;20000;-70
2023/07/08 07:10:23;;;;;;;;;;;;;;;22.34;79.58;101558.00;5034301;28;20019;-70
2023/07/08 07:12:48;;;;;;;;;;;;;;;22.52;83.02;101559.63;5016187;28;20480;-70
2023/07/08 07:15:13;;;;;;;;;;;;;;;22.67;84.80;101557.78;5032809;28;19928;-70
2023/07/08 07:17:38;;;;;;;;;;;;;;;22.79;85.83;101560.94;5038733;28;19924;-70
2023/07/08 07:20:05;;;;;;;;;;;;;;;22.85;80.55;101548.44;5026363;28;20002;-70
2023/07/08 07:22:30;;;;;;;;;;;;;;;22.93;78.13;101548.34;5024332;28;19921;-70
2023/07/08 07:24:55;;;;;;;;;;;;;;;23.11;82.28;101552.66;5042034;28;19929;-70
2023/07/08 07:27:21;;;;;;;;;;;;;;;23.03;76.94;101551.69;5040251;28;19925;-70
2023/07/08 07:29:47;;;;;;;;;;;;;;;23.16;83.84;101559.25;5041558;28;19998;-70
2023/07/08 07:32:12;;;;;;;;;;;;;;;23.30;76.78;101549.41;5015911;28;19925;-69
2023/07/08 07:34:38;;;;;;;;;;;;;;;23.35;72.93;101546.09;5033578;28;19929;-70
2023/07/08 07:37:03;;;;;;;;;;;;;;;23.46;77.30;101540.16;5033256;28;20366;-70
2023/07/08 07:39:28;;;;;;;;;;;;;;;23.51;74.64;101536.84;5017028;28;19929;-70
2023/07/08 07:41:54;;;;;;;;;;;;;;;23.67;79.47;101536.66;5032209;28;20818;-71
2023/07/08 07:44:19;;;;;;;;;;;;;;;23.79;75.52;101539.78;5015578;28;20292;-70
2023/07/08 07:46:44;;;;;;;;;;;;;;;23.95;71.87;101538.72;5032466;28;20086;-70
2023/07/08 07:49:09;;;;;;;;;;;;;;;23.98;71.29;101547.59;5031475;28;19956;-70
2023/07/08 07:51:34;;;;;;;;;;;;;;;24.06;81.68;101544.75;5031503;28;20002;-70
2023/07/08 07:54:00;;;;;;;;;;;;;;;24.13;75.29;101539.34;5029655;28;19927;-73
2023/07/08 07:56:25;;;;;;;;;;;;;;;24.22;77.21;101546.44;5027807;28;19925;-71
2023/07/08 07:58:50;;;;;;;;;;;;;;;24.25;76.16;101548.78;5033322;28;19925;-69
2023/07/08 08:01:15;;;;;;;;;;;;;;;24.30;77.09;101543.59;5019326;28;19929;-70
2023/07/08 08:03:41;;;;;;;;;;;;;;;24.45;76.56;101551.75;5034315;28;19929;-72
2023/07/08 08:06:06;;;;;;;;;;;;;;;24.51;73.90;101548.22;5012495;28;20019;-70
2023/07/08 08:08:31;;;;;;;;;;;;;;;24.54;72.76;101553.31;5016570;28;19924;-74
2023/07/08 08:10:56;;;;;;;;;;;;;;;24.69;70.87;101549.69;5031707;28;19925;-70
2023/07/08 08:13:22;;;;;;;;;;;;;;;24.78;69.98;101550.41;5028369;28;20366;-71
2023/07/08 08:15:47;;;;;;;;;;;;;;;24.62;70.82;101552.38;5016263;28;20039;-74
2023/07/08 08:18:12;;;;;;;;;;;;;;;24.75;72.17;101554.41;5015210;28;19933;-70
2023/07/08 08:20:39;;;;;;;;;;;;;;;24.75;66.72;101550.81;5016518;28;20031;-72
2023/07/08 08:23:06;;;;;;;;;;;;;;;24.97;68.63;101548.91;5029599;28;19928;-69
2023/07/08 08:25:31;;;;;;;;;;;;;;;25.00;74.76;101560.34;4999711;28;20019;-71
2023/07/08 08:27:56;;;;;;;;;;;;;;;25.10;66.61;101549.00;5031831;28;19962;-70
2023/07/08 08:30:22;;;;;;;;;;;;;;;25.18;71.03;101563.66;5012469;28;19924;-70
2023/07/08 08:32:47;;;;;;;;;;;;;;;25.14;65.67;101566.78;5010631;28;19936;-71
2023/07/08 08:35:13;;;;;;;;;;;;;;;25.19;72.95;101560.69;5012657;28;19929;-71
2023/07/08 08:37:38;;;;;;;;;;;;;;;25.10;71.38;101561.91;5032213;28;20394;-74
2023/07/08 08:40:03;;;;;;;;;;;;;;;25.21;74.21;101566.81;5033100;28;19947;-70
2023/07/08 08:42:30;;;;;;;;;;;;;;;25.39;69.67;101573.75;5037453;28;19925;-70
2023/07/08 08:44:57;;;;;;;;;;;;;;;25.60;67.62;101575.59;5016299;28;19929;-71
2023/07/08 08:47:42;;;;;;;;;;;;;;;25.85;75.07;101575.94;5015884;28;19936;-69
2023/07/08 08:50:26;;;;;;;;;;;;;;;26.01;70.54;101580.25;5023112;28;20797;-74
2023/07/08 08:52:51;;;;;;;;;;;;;;;26.06;72.89;101582.38;5036745;28;19925;-73
2023/07/08 08:55:16;;;;;;;;;;;;;;;26.07;63.31;101573.09;5016941;28;20396;-70
2023/07/08 08:57:43;;;;;;;;;;;;;;;25.96;67.19;101585.53;5032174;28;19927;-72
2023/07/08 09:00:09;;;;;;;;;;;;;;;26.03;72.44;101577.28;5028348;28;19979;-69
2023/07/08 09:02:42;;;;;;;;;;;;;;;26.16;68.71;101577.38;5016199;28;20718;-71
2023/07/08 09:05:08;;;;;;;;;;;;;;;26.41;68.47;101570.47;5023157;28;20032;-69
2023/07/08 09:07:36;;;;;;;;;;;;;;;26.47;69.85;101576.00;5042710;28;20659;-71
2023/07/08 09:10:06;;;;;;;;;;;;;;;26.49;72.82;101578.53;5022450;28;19965;-69
2023/07/08 09:12:31;;;;;;;;;;;;;;;26.62;69.06;101574.97;5018004;28;20231;-69
2023/07/08 09:14:56;;;;;;;;;;;;;;;26.85;70.16;101579.25;5019393;28;19920;-68
2023/07/08 09:17:30;;;;;;;;;;;;;;;27.12;63.23;101569.13;5016284;28;19963;-69
2023/07/08 09:20:14;;;;;;;;;;;;;;;27.22;68.80;101550.22;5015632;28;20335;-69
2023/07/08 09:22:59;;;;;;;;;;;;;;;27.53;58.59;101567.19;5037312;28;19925;-69
2023/07/08 09:25:32;;;;;;;;;;;;;;;27.66;64.63;101569.06;5037924;28;20027;-69
2023/07/08 09:27:58;;;;;;;;;;;;;;;27.91;59.25;101563.66;5025146;28;19931;-69
2023/07/08 09:30:24;;;;;;;;;;;;;;;27.84;61.53;101571.97;5040606;28;19925;-71
2023/07/08 09:32:50;;;;;;;;;;;;;;;27.75;59.73;101572.44;5023525;28;19968;-70
2023/07/08 09:35:25;;;;;;;;;;;;;;;27.79;66.37;101566.25;5023523;28;19987;-70
2023/07/08 09:37:51;;;;;;;;;;;;;;;27.84;65.10;101582.13;5030258;28;20325;-71
2023/07/08 09:40:28;;;;;;;;;;;;;;;27.99;59.35;101570.84;5017190;28;19959;-72
2023/07/08 09:42:56;;;;;;;;;;;;;;;27.77;57.70;101570.31;5021406;28;19928;-72
2023/07/08 09:45:22;;;;;;;;;;;;;;;28.01;68.10;101570.63;5015343;28;20250;-70
2023/07/08 09:47:51;;;;;;;;;;;;;;;28.34;56.52;101567.72;5034643;28;19925;-70
2023/07/08 09:50:27;;;;;;;;;;;;;;;28.53;58.96;101574.22;5033837;28;19944;-70
2023/07/08 09:52:53;;;;;;;;;;;;;;;28.69;55.15;101572.84;5035668;28;19943;-71
2023/07/08 09:55:19;;;;;;;;;;;;;;;28.68;51.08;101576.66;5017854;28;19928;-70
2023/07/08 09:57:45;;;;;;;;;;;;;;;28.52;54.38;101574.41;5034969;28;19959;-70
2023/07/08 10:00:15;;;;;;;;;;;;;;;28.55;55.22;101572.09;5012879;28;20542;-69
2023/07/08 10:02:45;;;;;;;;;;;;;;;28.91;51.60;101569.72;5016772;28;19928;-70
2023/07/08 10:05:17;;;;;;;;;;;;;;;29.23;48.39;101574.34;5017514;28;19921;-70
2023/07/08 10:07:43;;;;;;;;;;;;;;;29.43;47.19;101566.72;5039420;28;20039;-69
2023/07/08 10:10:10;;;;;;;;;;;;;;;29.65;53.72;101571.81;5017625;28;19924;-70
2023/07/08 10:12:36;;;;;;;;;;;;;;;29.73;48.48;101554.06;5015182;28;19924;-72
2023/07/08 10:15:22;;;;;;;;;;;;;;;30.00;48.58;101564.84;5012882;28;19929;-69
2023/07/08 10:17:47;;;;;;;;;;;;;;;30.32;50.66;101568.22;5013179;28;19920;-71
2023/07/08 10:20:12;;;;;;;;;;;;;;;30.23;44.61;101559.41;5017575;28;19921;-69
2023/07/08 10:22:41;;;;;;;;;;;;;;;30.62;46.35;101558.22;5027023;28;19920;-69
2023/07/08 10:25:16;;;;;;;;;;;;;;;31.03;42.85;101550.09;5012163;28;20421;-69
2023/07/08 10:27:54;;;;;;;;;;;;;;;31.20;41.35;101553.03;5015678;28;20310;-69
2023/07/08 10:30:21;;;;;;;;;;;;;;;31.05;48.75;101546.03;5033424;28;19929;-69
2023/07/08 10:33:08;;;;;;;;;;;;;;;31.49;47.38;101547.59;5014509;28;20004;-69
2023/07/08 10:35:34;;;;;;;;;;;;;;;31.68;43.62;101546.34;5034369;28;20458;-69
2023/07/08 10:38:03;;;;;;;;;;;;;;;31.78;42.83;101548.53;5010650;28;20367;-69
2023/07/08 10:40:29;;;;;;;;;;;;;;;31.72;43.89;101546.75;5015614;28;19933;-72
2023/07/08 10:42:54;;;;;;;;;;;;;;;31.99;45.17;101538.69;5033061;28;19929;-69
2023/07/08 10:45:31;;;;;;;;;;;;;;;32.39;43.64;101538.91;5036036;28;20267;-69
2023/07/08 10:47:59;;;;;;;;;;;;;;;32.62;42.14;101540.69;5017310;28;20069;-69
2023/07/08 10:50:25;;;;;;;;;;;;;;;33.14;43.11;101539.63;5031037;28;19925;-69
2023/07/08 10:52:59;;;;;;;;;;;;;;;33.30;42.31;101542.63;5035698;28;20284;-69
2023/07/08 10:55:43;;;;;;;;;;;;;;;33.02;37.32;101542.50;5015208;28;19932;-69
2023/07/08 10:58:17;;;;;;;;;;;;;;;33.10;40.77;101544.00;5036656;28;19929;-70
2023/07/08 11:01:04;;;;;;;;;;;;;;;33.49;45.23;101535.72;5032824;28;20382;-69
2023/07/08 11:03:36;;;;;;;;;;;;;;;33.98;36.14;101548.03;5015467;28;19924;-69
2023/07/08 11:06:01;;;;;;;;;;;;;;;34.21;35.01;101540.47;5036500;28;19943;-70
2023/07/08 11:08:31;;;;;;;;;;;;;;;34.08;37.14;101528.63;5044539;28;19925;-68
2023/07/08 11:11:04;;;;;;;;;;;;;;;34.43;41.35;101536.78;5023927;28;19925;-68
2023/07/08 11:13:29;;;;;;;;;;;;;;;34.06;40.89;101543.94;5020258;28;20170;-71
2023/07/08 11:16:02;;;;;;;;;;;;;;;34.24;39.28;101549.13;5042733;28;20348;-68
2023/07/08 11:18:30;;;;;;;;;;;;;;;34.72;36.23;101547.66;5024601;28;19924;-68
2023/07/08 11:20:55;;;;;;;;;;;;;;;35.22;36.71;101549.19;5023745;28;20051;-69
2023/07/08 11:23:27;;;;;;;;;;;;;;;35.73;39.68;101545.00;5035447;28;20382;-68
2023/07/08 11:25:54;;;;;;;;;;;;;;;36.22;37.88;101540.97;5008469;28;19983;-69
2023/07/08 11:28:20;;;;;;;;;;;;;;;36.69;37.02;101547.47;5042835;28;19925;-69
2023/07/08 11:30:46;;;;;;;;;;;;;;;36.45;31.54;101534.00;5019944;28;19938;-69
2023/07/08 11:33:11;;;;;;;;;;;;;;;36.33;35.52;101531.47;5014630;28;19931;-70
2023/07/08 11:35:41;;;;;;;;;;;;;;;35.41;33.60;101541.19;5017033;28;20290;-71
2023/07/08 11:38:06;;;;;;;;;;;;;;;34.40;33.32;101529.81;5015423;28;19976;-71
2023/07/08 11:40:31;;;;;;;;;;;;;;;34.89;37.20;101533.59;5016180;28;20002;-68
2023/07/08 11:45:32;;;;;;;;;;;;;;;34.87;36.50;101533.00;5029691;22;19929;-74
2023/07/08 11:48:26;;;;;;;;;;;;;;;35.02;36.08;101523.94;5004107;28;19925;-76
2023/07/08 11:50:52;;;;;;;;;;;;;;;36.07;32.15;101530.63;4993342;28;20263;-71
2023/07/08 11:53:29;;;;;;;;;;;;;;;35.75;36.86;101528.81;4993141;28;19991;-73
2023/07/08 11:56:04;;;;;;;;;;;;;;;36.65;35.87;101518.41;5005602;28;19932;-70
2023/07/08 11:58:31;;;;;;;;;;;;;;;37.52;32.70;101527.75;5010711;28;19936;-70
2023/07/08 12:01:00;;;;;;;;;;;;;;;38.23;34.57;101522.94;4994898;28;19921;-69
2023/07/08 12:03:37;;;;;;;;;;;;;;;38.26;29.73;101527.13;4992433;28;20061;-69
2023/07/08 12:06:06;;;;;;;;;;;;;;;38.91;27.27;101523.25;5007398;28;19971;-70
2023/07/08 12:08:37;;;;;;;;;;;;;;;39.33;29.80;101508.78;5008622;28;20111;-70
2023/07/08 12:11:02;;;;;;;;;;;;;;;39.38;29.07;101517.16;4991771;28;20335;-70
2023/07/08 12:13:28;;;;;;;;;;;;;;;39.56;29.89;101512.72;5013669;28;19975;-70
2023/07/08 12:15:53;;;;;;;;;;;;;;;39.22;28.82;101516.47;5009891;28;19925;-70
2023/07/08 12:18:18;;;;;;;;;;;;;;;39.11;29.94;101519.38;5015388;28;19964;-71
2023/07/08 12:20:56;;;;;;;;;;;;;;;38.35;33.27;101505.75;5013279;28;20016;-72
2023/07/08 12:23:22;;;;;;;;;;;;;;;38.00;30.47;101507.66;5005101;28;19984;-71
2023/07/08 12:25:48;;;;;;;;;;;;;;;38.71;29.82;101507.44;4997134;28;19925;-71
2023/07/08 12:28:13;;;;;;;;;;;;;;;39.02;27.52;101506.31;5017550;28;19929;-73
2023/07/08 12:30:39;;;;;;;;;;;;;;;38.43;29.64;101507.09;4993900;28;20032;-72
2023/07/08 12:33:05;;;;;;;;;;;;;;;37.98;29.02;101498.72;4996443;28;20025;-76
2023/07/08 12:35:31;;;;;;;;;;;;;;;38.18;30.35;101497.75;5000665;28;19925;-72